createdAt,value
2022-10-05T01:00:29.022Z,2.30
2022-10-05T01:03:53.361Z,2.30
2022-10-05T01:07:49.853Z,2.30
2022-10-05T01:11:53.072Z,1.80
2022-10-05T01:15:26.045Z,1.80
2022-10-05T01:19:08.690Z,1.80
2022-10-05T01:22:29.676Z,1.60
2022-10-05T01:25:53.146Z,1.60
2022-10-05T01:29:09.717Z,1.70
2022-10-05T01:33:08.564Z,2.00
2022-10-05T01:36:58.876Z,2.00
2022-10-05T01:40:29.146Z,2.20
2022-10-05T01:51:43.694Z,2.00
2022-10-05T01:55:26.118Z,2.10
2022-10-05T01:59:16.468Z,2.00
2022-10-05T02:02:16.275Z,2.20
2022-10-05T02:05:59.064Z,2.90
2022-10-05T02:09:07.953Z,2.40
2022-10-05T02:12:12.499Z,2.30
2022-10-05T02:15:25.625Z,2.70
2022-10-05T02:18:59.028Z,2.20
2022-10-05T02:21:59.153Z,2.20
2022-10-05T02:24:57.740Z,2.20
2022-10-05T02:28:16.721Z,2.80
2022-10-05T02:31:57.977Z,2.10
2022-10-05T02:35:06.098Z,2.00
2022-10-05T02:39:02.953Z,1.90
2022-10-05T02:42:42.705Z,2.60
2022-10-05T02:46:22.353Z,2.50
2022-10-05T02:50:11.497Z,2.00
2022-10-05T03:34:47.577Z,3.00
2022-10-05T03:37:44.505Z,3.30
2022-10-05T03:41:26.381Z,4.40
2022-10-05T03:45:36.158Z,5.30
2022-10-05T04:16:36.778Z,4.40
2022-10-05T04:20:30.205Z,3.60
2022-10-05T04:24:05.783Z,3.00
2022-10-05T05:12:11.548Z,2.60
2022-10-05T05:15:55.092Z,2.30
2022-10-05T05:19:31.269Z,2.30
2022-10-05T05:22:58.852Z,2.70
2022-10-05T05:26:51.084Z,3.10
2022-10-05T05:30:34.914Z,2.40
2022-10-05T05:34:27.778Z,2.50
2022-10-05T05:37:47.500Z,2.50
2022-10-05T05:41:28.538Z,2.40
2022-10-05T05:45:00.908Z,1.80
2022-10-05T05:48:33.432Z,1.90
2022-10-05T05:52:31.693Z,2.00
2022-10-05T05:56:10.598Z,1.80
2022-10-05T06:04:10.574Z,2.50
2022-10-05T06:08:18.595Z,2.20
2022-10-05T06:36:25.318Z,3.30
2022-10-05T06:40:19.771Z,2.10
2022-10-05T06:44:29.814Z,1.90
2022-10-05T07:09:46.404Z,1.90
2022-10-05T07:13:58.949Z,2.10
2022-10-05T07:18:12.086Z,2.70
2022-10-05T07:21:56.793Z,2.40
2022-10-05T07:25:26.330Z,2.70
2022-10-05T08:52:34.323Z,2.20
2022-10-05T08:56:01.676Z,2.50
2022-10-05T08:59:45.933Z,3.10
2022-10-05T09:03:25.495Z,2.40
2022-10-05T09:07:02.996Z,2.10
2022-10-05T09:10:47.546Z,2.40
2022-10-05T09:14:06.951Z,2.60
2022-10-05T09:17:40.833Z,2.50
2022-10-05T09:21:25.770Z,2.40
2022-10-05T09:25:18.460Z,2.70
2022-10-05T09:33:25.613Z,2.50
2022-10-05T09:37:39.081Z,2.70
2022-10-05T09:41:40.288Z,2.80
2022-10-05T09:58:14.158Z,2.20
2022-10-05T10:01:45.237Z,2.20
2022-10-05T10:05:21.050Z,2.20
2022-10-05T10:12:48.269Z,2.70
2022-10-05T10:16:37.685Z,2.50
2022-10-05T10:44:34.983Z,2.40
2022-10-05T10:48:26.940Z,2.70
2022-10-05T10:52:31.466Z,2.50
2022-10-05T10:56:08.930Z,2.90
2022-10-05T10:59:58.307Z,2.30
2022-10-05T11:03:36.692Z,2.60
2022-10-05T11:06:45.246Z,2.60
2022-10-05T11:09:53.475Z,2.50
2022-10-05T11:13:47.780Z,2.80
2022-10-05T11:17:21.817Z,2.80
2022-10-05T11:20:53.229Z,3.20
2022-10-05T11:24:17.615Z,3.20
2022-10-05T11:27:33.920Z,2.90
2022-10-05T11:31:26.838Z,3.40
2022-10-05T11:35:11.442Z,3.00
2022-10-05T11:38:51.808Z,3.30
2022-10-05T11:42:32.700Z,3.00
2022-10-05T11:46:19.452Z,2.50
2022-10-05T11:50:07.347Z,2.80
2022-10-05T11:53:31.948Z,2.60
2022-10-05T11:57:13.637Z,2.90
2022-10-05T12:00:09.152Z,2.90
2022-10-05T12:03:15.435Z,2.80
2022-10-05T12:06:52.067Z,3.00
2022-10-05T12:10:21.203Z,2.90
2022-10-05T12:13:28.907Z,2.90
2022-10-05T12:17:03.744Z,3.20
2022-10-05T12:19:56.146Z,3.20
2022-10-05T12:22:59.259Z,3.30
2022-10-05T12:26:02.260Z,3.40
2022-10-05T12:29:44.776Z,3.30
2022-10-05T12:33:35.851Z,3.80
2022-10-05T12:37:31.777Z,3.50
2022-10-05T12:40:52.870Z,4.00
2022-10-05T12:44:03.200Z,3.20
2022-10-05T12:47:36.604Z,3.70
2022-10-05T12:51:15.148Z,3.40
2022-10-05T12:54:24.156Z,3.10
2022-10-05T12:58:10.885Z,3.90
2022-10-05T13:01:57.805Z,3.60
2022-10-05T13:05:46.087Z,3.70
2022-10-05T13:08:58.656Z,3.50
2022-10-05T13:12:28.533Z,3.40
2022-10-05T13:15:44.481Z,3.70
2022-10-05T13:19:23.621Z,3.50
2022-10-05T13:23:22.813Z,3.80
2022-10-05T13:26:55.033Z,3.80
2022-10-05T13:30:02.025Z,3.40
2022-10-05T13:33:41.474Z,4.10
2022-10-05T13:37:18.709Z,3.80
2022-10-05T13:40:35.419Z,3.60
2022-10-05T14:08:57.931Z,4.00
2022-10-05T14:11:35.182Z,4.00
2022-10-05T14:14:28.479Z,3.70
2022-10-05T14:17:54.304Z,4.30
2022-10-05T14:20:38.460Z,4.10
2022-10-05T14:24:42.763Z,4.00
2022-10-05T14:28:46.901Z,4.40
2022-10-05T14:32:35.972Z,4.10
2022-10-05T14:36:01.701Z,3.90
2022-10-05T15:00:05.234Z,4.00
2022-10-05T15:06:14.805Z,4.10
2022-10-05T15:09:44.921Z,4.30
2022-10-05T15:13:02.438Z,4.10
2022-10-05T15:16:20.044Z,4.50
2022-10-05T15:19:44.847Z,4.20
2022-10-05T15:23:34.685Z,4.20
2022-10-05T15:27:23.334Z,3.90
2022-10-05T15:30:19.269Z,4.20
2022-10-05T15:33:40.768Z,4.20
2022-10-05T15:37:16.562Z,3.70
2022-10-05T15:40:36.089Z,4.20
2022-10-05T15:43:59.037Z,4.10
2022-10-05T15:47:18.250Z,4.10
2022-10-05T15:50:34.721Z,4.00
2022-10-05T16:00:42.859Z,4.50
2022-10-05T16:08:14.169Z,4.70
2022-10-05T16:39:56.097Z,5.60
2022-10-05T16:50:56.388Z,4.90
2022-10-05T16:54:00.033Z,5.80
2022-10-05T16:57:27.283Z,5.70
2022-10-05T17:00:38.189Z,5.40
2022-10-05T17:04:24.600Z,5.50
2022-10-05T17:07:49.993Z,4.70
2022-10-05T17:11:03.678Z,5.00
2022-10-05T17:14:21.469Z,5.90
2022-10-05T17:17:32.115Z,6.10
2022-10-05T17:20:19.414Z,6.10
2022-10-05T17:23:36.535Z,5.50
2022-10-05T17:29:59.918Z,5.10
2022-10-05T17:32:43.689Z,4.50
2022-10-05T17:35:41.909Z,4.90
2022-10-05T17:38:32.077Z,5.70
2022-10-05T17:41:21.491Z,6.40
2022-10-05T17:44:11.157Z,6.50
2022-10-05T17:46:46.277Z,5.80
2022-10-05T17:49:45.296Z,6.30
2022-10-05T17:52:48.235Z,5.20
2022-10-05T17:55:45.618Z,5.70
2022-10-05T17:58:28.885Z,5.80
2022-10-05T18:00:58.666Z,5.50
2022-10-05T18:03:44.062Z,5.60
2022-10-05T18:06:35.979Z,9.20
2022-10-05T18:09:28.011Z,11.90
2022-10-05T18:12:15.527Z,10.50
2022-10-05T18:15:08.598Z,9.30
2022-10-05T18:18:19.638Z,8.80
2022-10-05T18:21:32.484Z,7.80
2022-10-05T18:24:20.876Z,6.70
2022-10-05T18:27:26.446Z,6.20
2022-10-05T18:30:05.738Z,7.80
2022-10-05T18:33:22.134Z,8.50
2022-10-05T18:36:57.674Z,7.30
2022-10-05T18:40:23.095Z,7.60
2022-10-05T18:43:57.281Z,8.50
2022-10-05T18:46:59.714Z,9.60
2022-10-05T18:50:32.042Z,17.90
2022-10-05T18:54:11.532Z,12.30
2022-10-05T18:56:51.400Z,12.80
2022-10-05T19:00:21.256Z,13.70
2022-10-05T19:03:16.788Z,9.20
2022-10-05T19:06:25.499Z,11.30
2022-10-05T19:09:54.409Z,9.70
2022-10-05T19:12:43.301Z,9.30
2022-10-05T19:15:47.023Z,9.10
2022-10-05T19:18:22.320Z,7.00
2022-10-05T19:21:10.867Z,9.50
2022-10-05T19:24:15.187Z,9.70
2022-10-05T19:27:06.832Z,9.20
2022-10-05T19:30:13.966Z,7.60
2022-10-05T19:33:42.998Z,7.30
2022-10-05T19:36:49.061Z,5.90
2022-10-05T19:40:09.531Z,3.10
2022-10-05T19:43:24.383Z,3.80
2022-10-05T19:46:19.233Z,4.40
2022-10-05T19:48:54.077Z,4.30
2022-10-05T19:51:25.515Z,3.00
2022-10-05T19:54:20.247Z,3.50
2022-10-05T19:57:18.033Z,3.40
2022-10-05T20:00:25.156Z,2.40
2022-10-05T20:03:58.553Z,2.90
2022-10-05T20:06:54.381Z,2.80
2022-10-05T20:10:38.432Z,2.90
2022-10-05T20:13:36.738Z,2.70
2022-10-05T20:16:55.325Z,3.20
2022-10-05T20:22:52.030Z,2.60
2022-10-05T20:26:06.151Z,3.30
2022-10-05T20:29:08.454Z,3.20
2022-10-05T20:32:15.437Z,3.00
2022-10-05T20:35:51.195Z,2.90
2022-10-05T20:39:37.301Z,4.20
2022-10-05T20:43:39.213Z,3.90
2022-10-05T20:46:51.445Z,4.40
2022-10-05T20:53:49.212Z,3.70
2022-10-05T20:57:23.638Z,3.50
2022-10-05T21:29:28.549Z,3.30
2022-10-05T21:32:45.280Z,3.60
2022-10-05T21:36:01.323Z,3.90
2022-10-05T21:39:23.675Z,3.70
2022-10-05T23:43:50.767Z,1.50
